Have a Safe July 4th! 

Flight Track Log - Related Links

Times and Time Zones

All times are in EST time to prevent confusion due to time zone crossing. See the VRT51 flight status page for this flight to view local times or setup timezone preferences in your user account.

Time Position Orientation Groundspeed Altitude Reporting Facility
EST Latitude Longitude Course Direction KTS MPH feet Rate Location/Type
Sat 01:27:35 PM 18.3333 -64.9333 198° South 180 207 800  Level San Juan Center
Sat 01:28:35 PM 18.2833 -64.9500 198° South 280 322 2,800 2,800 Climbing San Juan Center
Sat 01:29:35 PM 18.2333 -65.0167 232° Southwest 270 311 6,400 2,900 Climbing San Juan Center
Sat 01:30:35 PM 18.1833 -65.0833 232° Southwest 290 334 8,600 1,800 Climbing San Juan Center
Sat 01:31:35 PM 18.1667 -65.1667 258° West 360 414 10,000 700 Climbing San Juan Center
Sat 01:32:35 PM 18.1500 -65.2667 260° West 330 380 10,000  Level San Juan Center
Sat 01:33:35 PM 18.1500 -65.3667 270° West 320 368 10,000 350 Level San Juan Center
Sat 01:34:35 PM 18.1500 -65.4500 270° West 310 357 10,700 1,800 Climbing San Juan Center
Sat 01:35:35 PM 18.1167 -65.5500 251° West 350 403 13,600 3,350 Climbing San Juan Center
Sat 01:36:35 PM 18.0667 -65.6333 238° Southwest 360 414 17,400 2,231 Climbing San Juan Center
Sat 01:37:36 PM 18.0333 -65.7500 253° West 410 472 18,100 942 Climbing San Juan Center
Sat 01:38:36 PM 17.9833 -65.8667 246° West 410 472 19,300 2,400 Climbing San Juan Center
Sat 01:39:36 PM 18.0167 -65.9833 287° West 410 472 22,900 3,600 Climbing San Juan Center
Sat 01:40:36 PM 18.0500 -66.0667 293° West 360 414 26,500 2,700 Climbing San Juan Center
Sat 01:41:36 PM 18.1000 -66.1667 298° West 380 437 28,300 1,884 Climbing San Juan Center
Sat 01:42:37 PM 18.1333 -66.2833 287° West 380 437 30,300 1,488 Climbing San Juan Center
Sat 01:43:37 PM 18.1833 -66.3833 298° West 400 460 31,300 900 Climbing San Juan Center
Sat 01:44:37 PM 18.2333 -66.4833 298° West 410 472 32,100 400 Climbing San Juan Center
Sat 01:45:37 PM 18.2833 -66.6167 292° West 440 506 32,100  Level San Juan Center
Sat 01:46:36 PM 18.3333 -66.7167 298° West 430 495 32,100 200 Level San Juan Center
Sat 01:47:37 PM 18.3667 -66.8167 289° West 410 472 32,500 793 Climbing San Juan Center
Sat 01:48:37 PM 18.4167 -66.9333 294° West 410 472 33,700 800 Climbing San Juan Center
Sat 01:49:37 PM 18.4667 -67.0500 294° West 430 495 34,100 350 Climbing San Juan Center
Sat 01:50:37 PM 18.5167 -67.1500 298° West 410 472 34,400 1,200 Climbing San Juan Center
Sat 01:51:37 PM 18.6000 -67.2333 317° Northwest 390 449 36,500 1,785 Climbing San Juan Center
Sat 01:52:38 PM 18.6667 -67.3333 305° West 370 426 38,000 1,150 Climbing San Juan Center
Sat 01:53:37 PM 18.7167 -67.4167 302° West 370 426 38,800 807 Climbing San Juan Center
Sat 01:54:37 PM 18.7833 -67.5000 310° West 360 414 39,600 645 Climbing San Juan Center
Sat 01:55:38 PM 18.8500 -67.5833 310° West 380 437 40,100 446 Climbing San Juan Center
Sat 01:56:38 PM 18.9167 -67.6833 305° West 400 460 40,500 450 Climbing San Juan Center
Sat 01:57:38 PM 18.9833 -67.7667 310° West 390 449 41,000 446 Climbing San Juan Center
Sat 01:58:39 PM 19.0667 -67.8667 311° West 400 460 41,400 446 Climbing San Juan Center
Sat 01:59:39 PM 19.1333 -67.9500 310° West 400 460 41,900 400 Climbing San Juan Center
Sat 02:00:39 PM 19.2000 -68.0500 305° West 400 460 42,200 400 Climbing San Juan Center
Sat 02:01:39 PM 19.2667 -68.1333 310° West 400 460 42,700 400 Climbing San Juan Center
Sat 02:02:39 PM 19.3333 -68.2333 305° West 400 460 43,000 150 Climbing San Juan Center
Sat 02:03:39 PM 19.4000 -68.3333 305° West 400 460 43,000  Level San Juan Center
Sat 02:04:39 PM 19.4833 -68.4333 311° West 420 483 43,000  Level San Juan Center
Sat 02:05:39 PM 19.5500 -68.5167 310° West 420 483 43,000  Level San Juan Center
Sat 02:06:39 PM 19.6167 -68.6167 305° West 420 483 43,000  Level San Juan Center
Sat 02:07:11 PM 19.6883 -68.6986 313° West 420 483 43,000  Level Miami Center
Sat 02:08:11 PM 19.7464 -68.7742 309° West 458 527 43,000  Level Miami Center
Sat 02:09:11 PM 19.8178 -68.8689 309° West 450 518 43,000  Level Miami Center
Sat 02:10:11 PM 19.8892 -68.9661 308° West 435 501 43,000  Level Miami Center
Sat 02:11:11 PM 19.9586 -69.0636 307° West 423 487 43,000  Level Miami Center
Sat 02:12:11 PM 20.0258 -69.1589 307° West 418 481 43,000  Level Miami Center
Sat 02:13:11 PM 20.0931 -69.2564 306° West 418 481 43,000  Level Miami Center
Sat 02:14:11 PM 20.1603 -69.3542 306° West 418 481 43,000  Level Miami Center
Sat 02:15:11 PM 20.2253 -69.4500 306° West 407 468 43,000  Level Miami Center
Sat 02:16:11 PM 20.2903 -69.5503 305° West 407 468 43,000  Level Miami Center
Sat 02:17:11 PM 20.3553 -69.6506 305° West 412 474 43,000  Level Miami Center
Sat 02:18:11 PM 20.4206 -69.7508 305° West 412 474 43,000  Level Miami Center
Sat 02:19:11 PM 20.4853 -69.8492 305° West 412 474 43,000  Level Miami Center
Sat 02:20:11 PM 20.5522 -69.9497 305° West 412 474 43,000  Level Miami Center
Sat 02:21:12 PM 20.6172 -70.0483 305° West 412 474 43,000  Level Miami Center
Sat 02:22:11 PM 20.6797 -70.1492 304° West 412 474 43,000  Level Miami Center
Sat 02:23:11 PM 20.7444 -70.2481 305° West 412 474 43,000  Level Miami Center
Sat 02:24:11 PM 20.8111 -70.3467 306° West 412 474 43,000  Level Miami Center
Sat 02:25:11 PM 20.8803 -70.4542 305° West 412 474 43,000  Level Miami Center
Sat 02:26:11 PM 20.9447 -70.5533 305° West 406 467 43,000  Level Miami Center
Sat 02:27:11 PM 21.0072 -70.6525 304° West 411 473 43,000  Level Miami Center
Sat 02:28:12 PM 21.0739 -70.7539 305° West 411 473 43,000  Level Miami Center
Sat 02:29:11 PM 21.1381 -70.8533 305° West 411 473 43,000  Level Miami Center
Sat 02:30:11 PM 21.2025 -70.9525 305° West 411 473 43,000  Level Miami Center
Sat 02:31:11 PM 21.2625 -71.0522 303° West 405 466 43,000  Level Miami Center
Sat 02:32:11 PM 21.3181 -71.1433 303° West 410 472 43,000  Level Miami Center
Sat 02:33:11 PM 21.3803 -71.2475 303° West 410 472 43,000  Level Miami Center
Sat 02:34:11 PM 21.4617 -71.3622 307° West 443 510 43,000  Level Miami Center
Sat 02:35:11 PM 21.5211 -71.4492 306° West 422 486 43,000  Level Miami Center
Sat 02:36:11 PM 21.5850 -71.5492 305° West 413 475 43,000  Level Miami Center
Sat 02:37:11 PM 21.6469 -71.6469 304° West 408 470 43,000  Level Miami Center
Sat 02:38:11 PM 21.7131 -71.7494 305° West 408 470 43,000  Level Miami Center
Sat 02:39:11 PM 21.7767 -71.8497 304° West 408 470 43,000  Level Miami Center
Sat 02:40:11 PM 21.8383 -71.9481 304° West 408 470 43,000  Level Miami Center
Sat 02:41:11 PM 21.9022 -72.0483 304° West 408 470 43,000  Level Miami Center
Sat 02:42:11 PM 21.9678 -72.1489 305° West 408 470 43,000  Level Miami Center
Sat 02:43:11 PM 22.0314 -72.2497 304° West 408 470 43,000  Level Miami Center
Sat 02:44:11 PM 22.0972 -72.3525 305° West 413 475 43,000  Level Miami Center
Sat 02:45:11 PM 22.1586 -72.4536 303° West 413 475 43,000  Level Miami Center
Sat 02:46:11 PM 22.2242 -72.5569 304° West 413 475 43,000  Level Miami Center
Sat 02:47:11 PM 22.2875 -72.6556 305° West 408 470 43,000  Level Miami Center
Sat 02:48:11 PM 22.3508 -72.7569 304° West 408 470 43,000  Level Miami Center
Sat 02:49:11 PM 22.4142 -72.8606 303° West 408 470 43,000  Level Miami Center
Sat 02:50:11 PM 22.4794 -72.9617 305° West 414 476 43,000  Level Miami Center
Sat 02:51:11 PM 22.5425 -73.0656 303° West 409 471 43,000  Level Miami Center
Sat 02:52:11 PM 22.5994 -73.1650 302° West 409 471 43,000  Level Miami Center
Sat 02:53:11 PM 22.6664 -73.2667 306° West 409 471 43,000  Level Miami Center
Sat 02:54:11 PM 22.7317 -73.3708 304° West 409 471 43,000  Level Miami Center
Sat 02:55:11 PM 22.7925 -73.4706 304° West 409 471 43,000  Level Miami Center
Sat 02:56:11 PM 22.8531 -73.5703 303° West 409 471 43,000  Level Miami Center
Sat 02:57:11 PM 22.9136 -73.6703 303° West 409 471 43,000  Level Miami Center
Sat 02:58:11 PM 22.9786 -73.7722 305° West 409 471 43,000  Level Miami Center
Sat 02:59:11 PM 23.0411 -73.8725 304° West 409 471 43,000  Level Miami Center
Sat 03:00:11 PM 23.1036 -73.9725 304° West 409 471 43,000  Level Miami Center
Sat 03:01:11 PM 23.1786 -74.0681 311° West 409 471 43,000  Level Miami Center
Sat 03:02:11 PM 23.2492 -74.1614 309° West 409 471 43,000  Level Miami Center
Sat 03:03:11 PM 23.3239 -74.2547 311° West 409 471 43,000  Level Miami Center
Sat 03:04:11 PM 23.3967 -74.3483 310° West 409 471 43,000  Level Miami Center
Sat 03:05:11 PM 23.4714 -74.4419 311° West 409 471 43,000  Level Miami Center
Sat 03:06:11 PM 23.5439 -74.5358 310° West 409 471 43,000  Level Miami Center
Sat 03:07:11 PM 23.6017 -74.6369 302° West 404 465 43,000  Level Miami Center
Sat 03:08:11 PM 23.6617 -74.7400 302° West 398 458 43,000  Level Miami Center
Sat 03:09:11 PM 23.7197 -74.8436 301° West 398 458 43,000  Level Miami Center
Sat 03:10:11 PM 23.7814 -74.9447 304° West 398 458 43,000  Level Miami Center
Sat 03:11:11 PM 23.8372 -75.0461 301° West 398 458 43,000  Level Miami Center
Sat 03:12:11 PM 23.8969 -75.1497 302° West 398 458 43,000  Level Miami Center
Sat 03:13:11 PM 23.9564 -75.2514 303° West 398 458 43,000  Level Miami Center
Sat 03:14:11 PM 24.0161 -75.3550 302° West 398 458 43,000 -467 Level Miami Center
Sat 03:16:11 PM 24.1372 -75.5700 302° West 409 471 41,600 -733 Descending Miami Center
Sat 03:17:11 PM 24.1967 -75.6764 302° West 414 476 40,800 -800 Descending Miami Center
Sat 03:18:11 PM 24.2517 -75.7761 301° West 407 468 40,000 -400 Descending Miami Center
Sat 03:19:11 PM 24.3067 -75.8739 302° West 394 453 40,000  Level Miami Center
Sat 03:20:11 PM 24.3639 -75.9758 302° West 389 448 40,000  Level Miami Center
Sat 03:21:11 PM 24.4208 -76.0758 302° West 389 448 40,000  Level Miami Center
Sat 03:22:11 PM 24.4778 -76.1783 301° West 389 448 40,000  Level Miami Center
Sat 03:23:11 PM 24.5347 -76.2808 301° West 389 448 40,000  Level Miami Center
Sat 03:24:12 PM 24.5914 -76.3811 302° West 389 448 40,000  Level Miami Center
Sat 03:25:11 PM 24.6461 -76.4817 301° West 384 442 40,000  Level Miami Center
Sat 03:26:11 PM 24.7028 -76.5842 301° West 384 442 40,000 -450 Level Miami Center
Sat 03:27:11 PM 24.7614 -76.6872 302° West 384 442 39,100 -1,050 Descending Miami Center
Sat 03:28:11 PM 24.8158 -76.7878 301° West 384 442 37,900 -1,150 Descending Miami Center
Sat 03:29:11 PM 24.8722 -76.8931 301° West 384 442 36,800 -950 Descending Miami Center
Sat 03:30:11 PM 24.9308 -76.9964 302° West 389 448 36,000 -397 Descending Miami Center
Sat 03:31:12 PM 24.9892 -77.1019 301° West 400 460 36,000  Level Miami Center
Sat 03:32:11 PM 25.0475 -77.2097 301° West 400 460 36,000  Level Miami Center
Sat 03:33:11 PM 25.1078 -77.3133 303° West 400 460 36,000  Level Miami Center
Sat 03:34:11 PM 25.1681 -77.4214 302° West 405 466 36,000 -550 Level Miami Center
Sat 03:35:11 PM 25.2303 -77.5411 300° West 405 466 34,900 -1,050 Descending Miami Center
Sat 03:36:11 PM 25.2861 -77.6472 300° West 400 460 33,900 -1,000 Descending Miami Center
Sat 03:37:11 PM 25.3419 -77.7533 300° West 400 460 32,900 -1,400 Descending Miami Center
Sat 03:38:11 PM 25.3872 -77.8664 294° West 400 460 31,100 -1,900 Descending Miami Center
Sat 03:39:11 PM 25.4178 -77.9861 286° West 400 460 29,100 -2,000 Descending Miami Center
Sat 03:40:11 PM 25.4503 -78.1061 287° West 405 466 27,100 -2,000 Descending Miami Center
Sat 03:41:11 PM 25.4806 -78.2261 286° West 405 466 25,100 -1,550 Descending Miami Center
Sat 03:42:11 PM 25.5147 -78.3486 287° West 405 466 24,000 -550 Descending Miami Center
Sat 03:43:11 PM 25.5450 -78.4619 287° West 398 458 24,000  Level Miami Center
Sat 03:44:11 PM 25.5750 -78.5797 286° West 398 458 24,000 -400 Level Miami Center
Sat 03:45:11 PM 25.6047 -78.7092 284° West 411 473 23,200 -1,350 Descending Miami Center
Sat 03:46:11 PM 25.6347 -78.8203 287° West 425 489 21,300 -2,150 Descending Miami Center
Sat 03:47:11 PM 25.6706 -78.9383 289° West 418 481 18,900 -2,200 Descending Miami Center
Sat 03:48:11 PM 25.7064 -79.0636 288° West 418 481 16,900 -2,150 Descending Miami Center
Sat 03:49:11 PM 25.7381 -79.1842 286° West 418 481 14,600 -2,400 Descending Miami Center
Sat 03:50:11 PM 25.7653 -79.3069 284° West 410 472 12,100 -2,550 Descending Miami Center
Sat 03:51:11 PM 25.7944 -79.4253 285° West 394 453 9,500 -2,450 Descending Miami Center
Sat 03:52:11 PM 25.8161 -79.5064 287° West 330 380 7,200 -2,480 Descending Miami Center
Sat 03:52:26 PM 25.8239 -79.5389 285° West 294 338 6,400 -1,300 Descending Miami Center
Sat 03:53:11 PM 25.8439 -79.5903 293° West 307 353 5,900 -393 Descending Miami Center
Sat 03:53:27 PM 25.8453 -79.6203 273° West 273 314 6,000  Climbing Miami Center
Sat 03:54:11 PM 25.8653 -79.6714 294° West 288 331 5,900  Descending Miami Center
Sat 03:54:28 PM 25.8772 -79.6994 295° West 272 313 6,000  Climbing Miami Center
Sat 03:55:11 PM 25.9033 -79.7556 297° West 282 325 5,900  Descending Miami Center
Sat 03:55:24 PM 25.9072 -79.7717 285° West 282 325 6,000  Climbing Miami Center
Sat 03:56:11 PM 25.9394 -79.8350 300° West 282 325 5,900  Descending Miami Center
Sat 03:56:24 PM 25.9450 -79.8581 285° West 286 329 6,000  Climbing Miami Center
Sat 03:57:11 PM 25.9711 -79.9119 298° West 282 325 5,900  Descending Miami Center
Sat 03:57:26 PM 25.9792 -79.9353 291° West 277 319 6,000  Climbing Miami Center
Sat 03:58:11 PM 26.0094 -79.9822 306° West 277 319 5,900  Descending Miami Center
Sat 03:58:27 PM 26.0194 -80.0056 296° West 267 307 6,000  Climbing Miami Center
Sat 03:59:11 PM 26.0558 -80.0506 312° West 272 313 5,900  Descending Miami Center
Sat 03:59:28 PM 26.0639 -80.0694 295° West 268 308 6,000  Climbing Miami Center
Sat 04:00:11 PM 26.1025 -80.1167 312° West 272 313 5,900 -88 Descending Miami Center
Sat 04:00:36 PM 26.1167 -80.1425 301° West 231 266 5,900 -450 Level Miami Center
Sat 04:01:31 PM 26.1469 -80.1894 306° West 202 232 5,300 -885 Descending Miami Center
Sat 04:02:38 PM 26.1472 -80.2589 270° West 202 232 4,100 -634 Descending Miami Center
Sat 04:03:34 PM 26.1461 -80.3167 269° West 205 236 4,000 -103 Descending Miami Center
Sat 04:04:35 PM 26.1444 -80.3839 268° West 209 241 3,900  Descending Miami Center
Sat 04:05:36 PM 26.1428 -80.4486 268° West 204 235 4,000  Climbing Miami Center
Sat 04:06:37 PM 26.1006 -80.4706 205° Southwest 202 232 3,900 -488 Descending Miami Center
Sat 04:07:39 PM 26.0767 -80.4258 121° Southeast 174 200 3,000 -837 Descending Miami Center
Sat 04:08:46 PM 26.0758 -80.3656 91° East 159 183 2,100 -465 Descending Miami Center
Sat 04:09:48 PM 26.0750 -80.3169 91° East 158 182 2,000 -49 Descending Miami Center
Sat 04:10:48 PM 26.0742 -80.2661 91° East 170 196 2,000 -517 Level Miami Center
Sat 04:11:44 PM 26.0753 -80.2200 88° East 162 186 1,000 -919 Descending Miami Center
Sat 04:12:39 PM 26.0739 -80.1853 93° East 112 129 300 -764 Descending Miami Center

Login

Don't have an account? Register now (free) for customized features, flight alerts, and more!